Rechercher aéroport 
image banner adimage banner adimage banner ad
image banner ad

6CL7 - Orange Co Sheriffs Forensics Lab Helistop

Situé à Santa Ana, United States

ICAO - 6CL7, IATA -

Données fournies par Airmate  

Information générale

Coordonnées: N33°44'52" W117°52'39"
Élévation : 223 feet MSL.
Variation magnétique : 14° East
Voir autres Aéroports à California

Données opérationnelles

Special qualification required
Heure actuelle UTC:
Heure actuelle locale:
METAR: KSNA 262253Z 23006KT 10SM OVC022 24/17 A2993 RMK AO2 SLP134 T02390172
TAF: KSNA 261918Z 2619/2718 22009KT P6SM OVC015 FM270400 24003KT P6SM OVC015
Voir NOTAMs / SUP AIP / TFR affectant cet aéroport [VIEW]
Fréquences de communication: [VIEW]

Pistes:

Coordonnées de l'aéroport

Adresse: Santa Ana United States

Vue satellite de 6CL7